Time;durP1;ratioP1;P1;durP2;ratioP2;P2;SDS_P1;SDS_P2;PMS_P1;PMS_P2;Temp;Humidity;BMP_temperature;BMP_pressure;BME280_temperature;BME280_humidity;BME280_pressure;Samples;Min_cycle;Max_cycle;Signal;HPM_P1;HPM_P2
2022/05/10 00:00:06;;;;;;;;;;;;;;;10.90;67.04;97327.33;1651293;87;20102;-83
2022/05/10 00:02:34;;;;;;;;;;;;;;;10.86;67.44;97323.89;1651338;87;20344;-83
2022/05/10 00:04:59;;;;;;;;;;;;;;;10.78;67.46;97325.52;1651421;87;20186;-83
2022/05/10 00:07:25;;;;;;;;;;;;;;;10.72;67.77;97328.73;1651387;87;20087;-83
2022/05/10 00:09:51;;;;;;;;;;;;;;;10.67;67.73;97330.19;1651196;87;20087;-83
2022/05/10 00:12:16;;;;;;;;;;;;;;;10.59;67.72;97322.39;1651557;86;20337;-83
2022/05/10 00:14:43;;;;;;;;;;;;;;;10.54;68.15;97324.14;1651581;86;20087;-83
2022/05/10 00:17:15;;;;;;;;;;;;;;;10.47;68.10;97327.88;1651170;87;20154;-83
2022/05/10 00:19:41;;;;;;;;;;;;;;;10.42;68.22;97330.63;1650959;87;20114;-83
2022/05/10 00:22:06;;;;;;;;;;;;;;;10.34;68.30;97320.19;1651392;86;20356;-83
2022/05/10 00:24:32;;;;;;;;;;;;;;;10.29;68.51;97324.56;1662571;85;20151;-83
2022/05/10 00:26:57;;;;;;;;;;;;;;;10.22;68.76;97328.73;1662243;86;20145;-83
2022/05/10 00:29:23;;;;;;;;;;;;;;;10.16;68.87;97329.34;1662533;86;20130;-83
2022/05/10 00:31:49;;;;;;;;;;;;;;;10.10;69.04;97325.59;1662449;86;20090;-83
2022/05/10 00:34:17;;;;;;;;;;;;;;;10.07;69.40;97325.87;1662494;86;20110;-83
2022/05/10 00:36:43;;;;;;;;;;;;;;;10.02;69.49;97325.54;1662452;86;20343;-83
2022/05/10 00:39:09;;;;;;;;;;;;;;;10.01;69.52;97324.40;1662398;86;20118;-83
2022/05/10 00:41:38;;;;;;;;;;;;;;;9.98;69.62;97319.03;1662515;86;20105;-83
2022/05/10 00:44:11;;;;;;;;;;;;;;;9.98;69.74;97319.03;1642692;86;20327;-83
2022/05/10 00:46:39;;;;;;;;;;;;;;;10.00;69.95;97317.09;1660985;86;20138;-83
2022/05/10 00:49:24;;;;;;;;;;;;;;;10.00;70.01;97307.20;1662329;86;20151;-83
2022/05/10 00:52:05;;;;;;;;;;;;;;;9.99;69.91;97306.87;1662295;86;20107;-82
2022/05/10 00:54:43;;;;;;;;;;;;;;;9.97;70.32;97301.83;1662378;85;20111;-83
2022/05/10 00:57:24;;;;;;;;;;;;;;;9.95;70.39;97296.47;1662411;86;20126;-83
2022/05/10 01:00:05;;;;;;;;;;;;;;;9.90;70.38;97296.91;1662441;86;20093;-83
2022/05/10 01:02:38;;;;;;;;;;;;;;;9.86;70.55;97289.92;1662370;86;20094;-83
2022/05/10 01:05:16;;;;;;;;;;;;;;;9.82;70.59;97289.91;1662083;86;20102;-83
2022/05/10 01:07:49;;;;;;;;;;;;;;;9.79;70.80;97289.41;1635334;86;20101;-83
2022/05/10 01:10:18;;;;;;;;;;;;;;;9.76;71.02;97288.40;1669023;85;20128;-83
2022/05/10 01:12:47;;;;;;;;;;;;;;;9.70;71.13;97288.55;1689911;84;20314;-83
2022/05/10 01:15:18;;;;;;;;;;;;;;;9.67;71.42;97287.56;1689734;85;20107;-83
2022/05/10 01:17:44;;;;;;;;;;;;;;;9.63;71.61;97283.66;1689981;85;20096;-83
2022/05/10 01:20:10;;;;;;;;;;;;;;;9.60;72.06;97287.86;1689651;85;20301;-83
2022/05/10 01:22:40;;;;;;;;;;;;;;;9.57;72.31;97286.36;1670166;85;20096;-83
2022/05/10 01:25:29;;;;;;;;;;;;;;;9.53;72.49;97288.94;1643501;84;20088;-83
2022/05/10 01:28:21;;;;;;;;;;;;;;;9.53;72.49;97285.52;1663466;86;20105;-83
2022/05/10 01:30:47;;;;;;;;;;;;;;;9.53;72.30;97288.94;1695275;85;20111;-83
2022/05/10 01:33:30;;;;;;;;;;;;;;;9.53;72.09;97286.34;1666081;86;20117;-83
2022/05/10 01:36:25;;;;;;;;;;;;;;;9.55;72.05;97278.40;1666137;86;20106;-81
2022/05/10 01:39:20;;;;;;;;;;;;;;;9.57;72.30;97276.46;1666277;86;20323;-83
2022/05/10 01:42:03;;;;;;;;;;;;;;;9.58;72.21;97275.49;1695371;84;20400;-83
2022/05/10 01:44:49;;;;;;;;;;;;;;;9.54;72.33;97276.29;1695374;84;20115;-83
2022/05/10 01:47:27;;;;;;;;;;;;;;;9.52;72.58;97272.23;1663570;86;20189;-83
2022/05/10 01:50:08;;;;;;;;;;;;;;;9.51;72.64;97275.30;1666342;86;20126;-83
2022/05/10 01:53:01;;;;;;;;;;;;;;;9.50;72.79;97274.16;1666046;86;20371;-83
2022/05/10 01:55:29;;;;;;;;;;;;;;;9.48;72.82;97276.91;1666155;86;20142;-81
2022/05/10 01:58:00;;;;;;;;;;;;;;;9.44;73.04;97276.89;1665917;86;20130;-82
2022/05/10 02:00:27;;;;;;;;;;;;;;;9.40;73.22;97277.33;1665793;86;20327;-81
2022/05/10 02:02:56;;;;;;;;;;;;;;;9.37;73.31;97277.64;1668037;86;20367;-81
2022/05/10 02:05:41;;;;;;;;;;;;;;;9.33;73.60;97274.06;1668002;86;20154;-81
2022/05/10 02:08:34;;;;;;;;;;;;;;;9.29;73.58;97273.23;1667739;86;20166;-81
2022/05/10 02:11:03;;;;;;;;;;;;;;;9.25;73.66;97267.98;1667935;86;20117;-81
2022/05/10 02:13:31;;;;;;;;;;;;;;;9.22;74.03;97268.30;1667987;86;20343;-81
2022/05/10 02:16:01;;;;;;;;;;;;;;;9.18;74.02;97262.61;1668024;86;20102;-83
2022/05/10 02:18:42;;;;;;;;;;;;;;;9.15;73.92;97268.58;1668003;86;20125;-83
2022/05/10 02:21:15;;;;;;;;;;;;;;;9.13;73.97;97264.84;1668167;86;20114;-83
2022/05/10 02:24:04;;;;;;;;;;;;;;;9.15;74.17;97267.28;1672567;85;20124;-83
2022/05/10 02:26:51;;;;;;;;;;;;;;;9.17;74.16;97263.57;1690497;85;20161;-83
2022/05/10 02:29:24;;;;;;;;;;;;;;;9.20;74.31;97255.97;1690420;84;20120;-81
2022/05/10 02:34:49;;;;;;;;;;;;;;;9.23;74.61;97253.88;1690497;85;20129;-81
2022/05/10 02:37:15;;;;;;;;;;;;;;;9.24;74.72;97254.20;1690421;85;20077;-81
2022/05/10 02:39:41;;;;;;;;;;;;;;;9.25;74.73;97263.61;1683021;85;20110;-83
2022/05/10 02:42:09;;;;;;;;;;;;;;;9.25;74.79;97253.23;1724782;83;20462;-83
2022/05/10 02:44:36;;;;;;;;;;;;;;;9.24;74.91;97258.58;1724782;83;20149;-83
2022/05/10 02:47:02;;;;;;;;;;;;;;;9.20;75.10;97256.78;1724745;83;20085;-83
2022/05/10 02:49:28;;;;;;;;;;;;;;;9.16;75.14;97250.28;1718759;83;20133;-83
2022/05/10 02:51:55;;;;;;;;;;;;;;;9.12;75.09;97251.55;1712010;84;20167;-83
2022/05/10 02:54:21;;;;;;;;;;;;;;;9.09;75.38;97253.61;1711826;84;20157;-83
2022/05/10 02:56:46;;;;;;;;;;;;;;;9.05;75.50;97245.81;1712043;84;20162;-83
2022/05/10 02:59:18;;;;;;;;;;;;;;;8.99;75.59;97249.34;1685216;84;20161;-83
2022/05/10 03:01:57;;;;;;;;;;;;;;;8.96;75.76;97248.36;1711730;84;20156;-83
2022/05/10 03:04:23;;;;;;;;;;;;;;;8.91;75.82;97246.67;1666101;86;20149;-83
2022/05/10 03:06:48;;;;;;;;;;;;;;;8.88;76.01;97247.46;1665961;86;20142;-83
2022/05/10 03:09:14;;;;;;;;;;;;;;;8.85;76.12;97245.98;1643613;86;20155;-83
2022/05/10 03:11:40;;;;;;;;;;;;;;;8.83;76.28;97257.47;1668981;85;20113;-83
2022/05/10 03:14:06;;;;;;;;;;;;;;;8.81;76.19;97258.92;1668822;85;20189;-83
2022/05/10 03:16:34;;;;;;;;;;;;;;;8.81;76.12;97258.92;1669173;86;20081;-83
2022/05/10 03:18:59;;;;;;;;;;;;;;;8.83;76.08;97262.66;1667205;85;20372;-83
2022/05/10 03:21:25;;;;;;;;;;;;;;;8.84;76.22;97257.80;1665439;86;20122;-83
2022/05/10 03:23:51;;;;;;;;;;;;;;;8.85;76.25;97252.95;1666420;85;20358;-83
2022/05/10 03:26:21;;;;;;;;;;;;;;;8.87;76.22;97257.02;1676944;86;20071;-83
2022/05/10 03:28:47;;;;;;;;;;;;;;;8.91;76.15;97253.64;1676641;86;20087;-83
2022/05/10 03:31:14;;;;;;;;;;;;;;;8.91;76.17;97251.86;1677073;86;20080;-83
2022/05/10 03:33:39;;;;;;;;;;;;;;;8.91;76.32;97247.16;1676940;86;20430;-83
2022/05/10 03:36:06;;;;;;;;;;;;;;;8.90;76.59;97242.94;1677063;86;20131;-83
2022/05/10 03:38:33;;;;;;;;;;;;;;;8.89;76.63;97238.72;1676600;86;20131;-83
2022/05/10 03:40:58;;;;;;;;;;;;;;;8.86;76.82;97242.43;1677019;86;20087;-83
2022/05/10 03:43:25;;;;;;;;;;;;;;;8.85;76.80;97248.58;1676999;86;20111;-83
2022/05/10 03:45:50;;;;;;;;;;;;;;;8.87;76.87;97249.24;1677054;86;20118;-83
2022/05/10 03:48:16;;;;;;;;;;;;;;;8.88;76.81;97247.46;1676875;86;20102;-83
2022/05/10 03:50:42;;;;;;;;;;;;;;;8.91;77.00;97247.16;1676928;86;20075;-83
2022/05/10 03:53:07;;;;;;;;;;;;;;;8.94;77.22;97239.89;1676978;86;20387;-83
2022/05/10 03:55:33;;;;;;;;;;;;;;;8.99;77.31;97238.16;1689078;83;20080;-83
2022/05/10 03:57:58;;;;;;;;;;;;;;;9.02;77.46;97229.59;1710384;84;20174;-83
2022/05/10 04:00:26;;;;;;;;;;;;;;;9.08;77.48;97229.95;1710213;84;20150;-83
2022/05/10 04:02:51;;;;;;;;;;;;;;;9.03;77.60;97222.15;1708906;83;20124;-81
2022/05/10 04:05:17;;;;;;;;;;;;;;;9.10;77.75;97226.72;1704974;84;20403;-81
2022/05/10 04:07:43;;;;;;;;;;;;;;;9.08;77.85;97226.87;1705085;84;20108;-81
2022/05/10 04:10:10;;;;;;;;;;;;;;;9.08;77.96;97225.58;1704992;83;20122;-81
2022/05/10 04:12:36;;;;;;;;;;;;;;;9.07;78.06;97227.84;1709102;83;20102;-80
2022/05/10 04:15:03;;;;;;;;;;;;;;;9.05;78.19;97223.77;1706756;84;20095;-80
2022/05/10 04:17:29;;;;;;;;;;;;;;;9.06;78.26;97220.21;1704978;84;20084;-81
2022/05/10 04:19:55;;;;;;;;;;;;;;;9.09;78.31;97223.80;1689245;84;20350;-81
2022/05/10 04:22:21;;;;;;;;;;;;;;;9.10;78.18;97222.34;1687056;85;20112;-81
2022/05/10 04:24:46;;;;;;;;;;;;;;;9.13;78.17;97222.06;1700575;84;20320;-81
2022/05/10 04:27:12;;;;;;;;;;;;;;;9.16;78.12;97215.27;1704906;84;20099;-81
2022/05/10 04:29:38;;;;;;;;;;;;;;;9.20;78.20;97217.07;1734137;82;20125;-81
2022/05/10 04:32:04;;;;;;;;;;;;;;;9.23;78.32;97218.05;1709273;84;20134;-81
2022/05/10 04:34:29;;;;;;;;;;;;;;;9.27;78.24;97222.81;1694776;85;20088;-83
2022/05/10 04:36:55;;;;;;;;;;;;;;;9.31;78.16;97224.61;1709208;84;20185;-83
2022/05/10 04:39:21;;;;;;;;;;;;;;;9.36;78.18;97218.47;1708945;84;20104;-83
2022/05/10 04:41:48;;;;;;;;;;;;;;;9.41;78.27;97220.11;1694995;85;20368;-83
2022/05/10 04:44:13;;;;;;;;;;;;;;;9.45;78.28;97219.34;1709243;84;20090;-83
2022/05/10 04:46:40;;;;;;;;;;;;;;;9.49;78.35;97220.66;1709291;84;20137;-83
2022/05/10 04:49:06;;;;;;;;;;;;;;;9.51;78.39;97221.30;1664093;86;20096;-83
2022/05/10 04:51:32;;;;;;;;;;;;;;;9.52;78.37;97223.75;1693382;85;20098;-83
2022/05/10 04:53:58;;;;;;;;;;;;;;;9.54;78.22;97217.91;1682966;85;20107;-83
2022/05/10 04:56:24;;;;;;;;;;;;;;;9.59;78.20;97221.33;1682968;85;20151;-83
2022/05/10 04:58:51;;;;;;;;;;;;;;;9.62;78.09;97228.34;1682852;85;20084;-82
2022/05/10 05:01:17;;;;;;;;;;;;;;;9.69;78.21;97219.93;1689207;83;20099;-83
2022/05/10 05:03:47;;;;;;;;;;;;;;;9.75;78.11;97220.59;1699253;84;20139;-83
2022/05/10 05:06:13;;;;;;;;;;;;;;;9.81;78.08;97224.70;1727879;83;20097;-83
2022/05/10 05:08:39;;;;;;;;;;;;;;;9.88;78.07;97219.68;1704947;83;20108;-83
2022/05/10 05:11:04;;;;;;;;;;;;;;;9.95;78.19;97227.67;1693913;85;20091;-84
2022/05/10 05:13:30;;;;;;;;;;;;;;;9.99;78.36;97225.08;1702669;82;20120;-83
2022/05/10 05:15:55;;;;;;;;;;;;;;;10.06;78.56;97228.18;1727399;83;20109;-83
2022/05/10 05:18:22;;;;;;;;;;;;;;;10.10;78.60;97226.91;1726954;83;20128;-83
2022/05/10 05:20:47;;;;;;;;;;;;;;;10.15;78.47;97226.44;1738709;82;20114;-83
2022/05/10 05:23:13;;;;;;;;;;;;;;;10.24;78.61;97230.69;1730943;82;20259;-83
2022/05/10 05:25:40;;;;;;;;;;;;;;;10.32;78.90;97228.13;1713603;84;20086;-83
2022/05/10 05:28:06;;;;;;;;;;;;;;;10.44;78.71;97225.56;1713517;84;20158;-83
2022/05/10 05:30:32;;;;;;;;;;;;;;;10.55;78.71;97228.31;1708449;84;20105;-83
2022/05/10 05:32:58;;;;;;;;;;;;;;;10.65;78.58;97230.29;1695808;85;20111;-83
2022/05/10 05:35:24;;;;;;;;;;;;;;;10.74;78.74;97228.52;1684677;85;20161;-83
2022/05/10 05:37:50;;;;;;;;;;;;;;;10.85;78.30;97232.56;1696420;85;20135;-83
2022/05/10 05:40:16;;;;;;;;;;;;;;;10.96;78.62;97224.45;1722877;83;20085;-83
2022/05/10 05:42:42;;;;;;;;;;;;;;;11.08;78.91;97233.55;1722385;83;20346;-82
2022/05/10 05:45:09;;;;;;;;;;;;;;;11.15;78.76;97231.09;1722156;83;20109;-82
2022/05/10 05:47:34;;;;;;;;;;;;;;;11.22;78.14;97233.34;1722603;83;20141;-82
2022/05/10 05:50:00;;;;;;;;;;;;;;;11.31;77.36;97234.48;1722011;83;20133;-82
2022/05/10 05:52:26;;;;;;;;;;;;;;;11.42;76.45;97232.84;1722710;83;20459;-82
2022/05/10 05:54:52;;;;;;;;;;;;;;;11.52;77.88;97228.73;1731591;82;20203;-83
2022/05/10 05:57:19;;;;;;;;;;;;;;;11.59;78.01;97234.92;1731732;82;20187;-82
2022/05/10 05:59:44;;;;;;;;;;;;;;;11.65;78.15;97231.64;1739414;82;20105;-83
2022/05/10 06:02:15;;;;;;;;;;;;;;;11.73;78.08;97227.72;1724121;83;20122;-82
2022/05/10 06:04:41;;;;;;;;;;;;;;;11.81;78.12;97228.20;1725069;83;20346;-83
2022/05/10 06:07:07;;;;;;;;;;;;;;;11.87;76.93;97241.84;1725677;83;20104;-84
2022/05/10 06:09:32;;;;;;;;;;;;;;;11.94;77.05;97235.48;1725401;82;20129;-83
2022/05/10 06:11:58;;;;;;;;;;;;;;;12.06;76.65;97239.84;1699161;83;20117;-83
2022/05/10 06:14:23;;;;;;;;;;;;;;;12.15;77.30;97240.10;1725725;83;20097;-83
2022/05/10 06:16:49;;;;;;;;;;;;;;;12.22;76.41;97234.55;1726906;82;20370;-83
2022/05/10 06:19:16;;;;;;;;;;;;;;;12.29;76.23;97229.77;1727617;82;20350;-83
2022/05/10 06:21:42;;;;;;;;;;;;;;;12.38;76.48;97233.16;1724716;83;20121;-83
2022/05/10 06:24:12;;;;;;;;;;;;;;;12.46;75.62;97237.49;1723607;82;20124;-83
2022/05/10 06:26:38;;;;;;;;;;;;;;;12.53;75.33;97238.44;1728400;83;20196;-83
2022/05/10 06:29:03;;;;;;;;;;;;;;;12.61;75.00;97239.67;1733998;82;20181;-83
2022/05/10 06:31:29;;;;;;;;;;;;;;;12.70;75.47;97239.95;1728236;83;20113;-83
2022/05/10 06:33:55;;;;;;;;;;;;;;;12.79;75.36;97243.30;1694321;83;20085;-82
2022/05/10 06:36:21;;;;;;;;;;;;;;;12.86;75.55;97245.55;1699189;84;20132;-83
2022/05/10 06:38:47;;;;;;;;;;;;;;;12.91;74.11;97239.30;1702140;83;20474;-83
2022/05/10 06:41:12;;;;;;;;;;;;;;;13.01;73.88;97241.65;1711841;82;20353;-82
2022/05/10 06:43:38;;;;;;;;;;;;;;;13.10;73.37;97234.09;1673451;85;20143;-83
2022/05/10 06:46:20;;;;;;;;;;;;;;;13.21;72.78;97241.03;1711585;82;20145;-83
2022/05/10 06:48:46;;;;;;;;;;;;;;;13.36;72.73;97236.34;1728445;83;20141;-83
2022/05/10 06:51:13;;;;;;;;;;;;;;;13.50;72.68;97236.82;1728447;83;20096;-83
2022/05/10 06:53:39;;;;;;;;;;;;;;;13.50;72.25;97235.52;1728675;83;20149;-83
2022/05/10 06:56:05;;;;;;;;;;;;;;;13.49;71.67;97243.03;1728917;83;20141;-83
2022/05/10 06:58:31;;;;;;;;;;;;;;;13.47;72.70;97237.99;1728730;83;20306;-83
2022/05/10 07:00:57;;;;;;;;;;;;;;;13.41;73.44;97233.99;1728846;83;20116;-83
2022/05/10 07:03:26;;;;;;;;;;;;;;;13.33;73.77;97236.66;1728033;83;20089;-84
2022/05/10 07:05:53;;;;;;;;;;;;;;;13.28;74.06;97240.31;1728793;83;20346;-83
2022/05/10 07:08:19;;;;;;;;;;;;;;;13.26;74.14;97244.41;1728695;83;20136;-83
2022/05/10 07:10:44;;;;;;;;;;;;;;;13.24;74.21;97242.97;1728572;83;20326;-83
2022/05/10 07:13:18;;;;;;;;;;;;;;;13.23;74.25;97243.47;1743514;82;20075;-82
2022/05/10 07:15:46;;;;;;;;;;;;;;;13.28;74.55;97242.92;1693045;84;20101;-83
2022/05/10 07:18:12;;;;;;;;;;;;;;;13.30;74.73;97243.55;1674447;84;20107;-83
2022/05/10 07:20:38;;;;;;;;;;;;;;;13.31;74.17;97247.28;1712535;83;20127;-82
2022/05/10 07:23:06;;;;;;;;;;;;;;;13.28;74.40;97245.04;1711207;84;20095;-83
2022/05/10 07:25:31;;;;;;;;;;;;;;;13.26;75.01;97247.02;1698924;83;20088;-83
2022/05/10 07:27:59;;;;;;;;;;;;;;;13.21;74.99;97245.44;1693531;84;20170;-83
2022/05/10 07:30:25;;;;;;;;;;;;;;;13.17;75.29;97245.42;1682140;84;20097;-84
2022/05/10 07:32:51;;;;;;;;;;;;;;;13.14;75.65;97243.17;1700683;84;20387;-83
2022/05/10 07:36:23;;;;;;;;;;;;;;;13.13;75.85;97249.38;1706489;84;20158;-83
2022/05/10 07:37:46;;;;;;;;;;;;;;;13.13;76.03;97246.77;1688397;84;20751;-83
2022/05/10 07:40:12;;;;;;;;;;;;;;;13.13;76.32;97244.97;1689474;84;20170;-83
2022/05/10 07:42:38;;;;;;;;;;;;;;;13.14;76.86;97243.98;1689568;85;20143;-83
2022/05/10 07:45:06;;;;;;;;;;;;;;;13.17;76.71;97246.23;1689553;85;20092;-83
2022/05/10 07:47:31;;;;;;;;;;;;;;;13.19;76.84;97243.51;1689620;85;20309;-83
2022/05/10 07:49:58;;;;;;;;;;;;;;;13.21;77.10;97244.95;1677382;84;20136;-83
2022/05/10 07:52:24;;;;;;;;;;;;;;;13.25;77.46;97245.40;1676735;86;20107;-83
2022/05/10 07:54:50;;;;;;;;;;;;;;;13.26;77.34;97250.13;1697709;84;20107;-82
2022/05/10 07:57:16;;;;;;;;;;;;;;;13.26;77.46;97245.71;1701085;84;20147;-83
2022/05/10 07:59:42;;;;;;;;;;;;;;;13.27;77.30;97249.13;1697606;84;20128;-83
2022/05/10 08:02:09;;;;;;;;;;;;;;;13.28;77.16;97246.34;1668211;84;20129;-83
2022/05/10 08:04:35;;;;;;;;;;;;;;;13.32;77.13;97246.80;1689191;83;20101;-83
2022/05/10 08:07:02;;;;;;;;;;;;;;;13.39;77.33;97249.03;1691323;84;20092;-84
2022/05/10 08:09:30;;;;;;;;;;;;;;;13.50;77.63;97241.58;1689643;85;20131;-84
2022/05/10 08:11:56;;;;;;;;;;;;;;;13.54;77.28;97247.25;1703986;84;20091;-84
2022/05/10 08:14:22;;;;;;;;;;;;;;;13.54;76.84;97247.25;1732026;83;20344;-84
2022/05/10 08:16:47;;;;;;;;;;;;;;;13.52;76.55;97238.78;1692863;84;20148;-84
2022/05/10 08:19:13;;;;;;;;;;;;;;;13.49;75.41;97243.03;1682951;85;20111;-84
2022/05/10 08:21:39;;;;;;;;;;;;;;;13.54;75.05;97243.83;1710092;84;20106;-84
2022/05/10 08:24:05;;;;;;;;;;;;;;;13.55;75.76;97244.14;1710306;84;20085;-84
2022/05/10 08:26:33;;;;;;;;;;;;;;;13.53;75.67;97240.90;1714807;84;20114;-84
2022/05/10 08:28:58;;;;;;;;;;;;;;;13.53;75.38;97242.20;1715485;84;20133;-84
2022/05/10 08:31:24;;;;;;;;;;;;;;;13.58;75.69;97243.28;1715734;84;20125;-84
2022/05/10 08:33:50;;;;;;;;;;;;;;;13.91;73.73;97240.30;1689626;84;20141;-84
2022/05/10 08:36:15;;;;;;;;;;;;;;;14.21;73.31;97235.36;1715937;84;20169;-84
2022/05/10 08:38:41;;;;;;;;;;;;;;;14.55;71.54;97231.33;1715746;83;20158;-83
2022/05/10 08:41:24;;;;;;;;;;;;;;;14.57;74.07;97231.95;1715475;83;20121;-84
2022/05/10 08:43:53;;;;;;;;;;;;;;;14.73;73.86;97235.63;1715721;83;20371;-84
2022/05/10 08:46:25;;;;;;;;;;;;;;;15.03;71.51;97225.03;1715562;84;20109;-84
2022/05/10 08:48:54;;;;;;;;;;;;;;;15.32;72.90;97227.48;1715553;84;20121;-84
2022/05/10 08:51:20;;;;;;;;;;;;;;;15.56;72.40;97228.33;1715713;83;20172;-84
2022/05/10 08:53:46;;;;;;;;;;;;;;;15.71;72.22;97230.06;1715856;83;20157;-84
2022/05/10 08:56:28;;;;;;;;;;;;;;;15.54;66.99;97224.28;1689525;84;20352;-83
2022/05/10 08:58:58;;;;;;;;;;;;;;;15.73;66.53;97224.13;1715752;84;20129;-83
2022/05/10 09:01:27;;;;;;;;;;;;;;;15.99;66.45;97229.50;1689477;84;20098;-82
2022/05/10 09:04:02;;;;;;;;;;;;;;;15.99;64.12;97224.77;1715865;83;20121;-82
2022/05/10 09:06:59;;;;;;;;;;;;;;;16.11;61.83;97222.70;1715161;84;20172;-84
2022/05/10 09:09:27;;;;;;;;;;;;;;;16.28;61.54;97227.61;1715671;84;20117;-84
2022/05/10 09:11:59;;;;;;;;;;;;;;;16.57;63.36;97222.02;1712953;84;20149;-84
2022/05/10 09:14:33;;;;;;;;;;;;;;;16.75;61.80;97220.96;1700479;84;20097;-84
2022/05/10 09:17:00;;;;;;;;;;;;;;;16.98;59.34;97219.28;1700739;84;20649;-84
2022/05/10 09:19:37;;;;;;;;;;;;;;;17.23;61.26;97218.16;1700679;84;20121;-84
2022/05/10 09:22:06;;;;;;;;;;;;;;;17.39;59.03;97215.62;1700862;84;20128;-84
2022/05/10 09:24:53;;;;;;;;;;;;;;;17.50;55.18;97214.20;1700581;84;20093;-84
2022/05/10 09:27:24;;;;;;;;;;;;;;;17.52;54.08;97207.72;1706154;84;20109;-84
2022/05/10 09:29:50;;;;;;;;;;;;;;;17.66;56.46;97207.19;1700567;83;20090;-84
2022/05/10 09:35:24;;;;;;;;;;;;;;;17.80;52.70;97204.86;1700674;84;20124;-84
2022/05/10 09:38:08;;;;;;;;;;;;;;;17.91;53.95;97199.47;1700626;84;20148;-84
2022/05/10 09:40:38;;;;;;;;;;;;;;;18.03;53.90;97187.27;1700548;84;20085;-84
2022/05/10 09:43:32;;;;;;;;;;;;;;;18.17;54.59;97188.02;1700258;84;20089;-84
2022/05/10 09:46:13;;;;;;;;;;;;;;;18.28;54.10;97183.42;1700560;84;20121;-82
2022/05/10 09:48:40;;;;;;;;;;;;;;;18.42;49.60;97180.21;1699285;84;20125;-82
2022/05/10 09:51:26;;;;;;;;;;;;;;;18.39;48.99;97185.39;1700722;84;20089;-82
2022/05/10 09:53:52;;;;;;;;;;;;;;;18.35;51.29;97180.23;1700204;84;20102;-82
2022/05/10 09:56:27;;;;;;;;;;;;;;;18.30;48.31;97179.56;1700950;84;20121;-84
2022/05/10 09:59:00;;;;;;;;;;;;;;;18.26;50.33;97173.63;1701137;84;20084;-84
2022/05/10 10:01:46;;;;;;;;;;;;;;;18.34;50.05;97173.36;1701169;84;20149;-84
2022/05/10 10:04:37;;;;;;;;;;;;;;;18.44;50.75;97171.59;1700811;84;20097;-84
2022/05/10 10:07:09;;;;;;;;;;;;;;;18.60;52.07;97165.81;1684930;84;20327;-84
2022/05/10 10:09:38;;;;;;;;;;;;;;;18.66;48.46;97168.13;1700888;84;20185;-84
2022/05/10 10:12:08;;;;;;;;;;;;;;;18.68;48.96;97164.26;1700775;84;20093;-84
2022/05/10 10:14:42;;;;;;;;;;;;;;;18.75;48.04;97166.35;1700467;84;20078;-84
2022/05/10 10:17:17;;;;;;;;;;;;;;;18.80;49.66;97156.48;1701161;84;20133;-83
2022/05/10 10:19:46;;;;;;;;;;;;;;;18.86;48.68;97155.10;1701630;84;20101;-83
2022/05/10 10:22:18;;;;;;;;;;;;;;;18.93;49.34;97151.12;1701607;84;20127;-83
2022/05/10 10:24:53;;;;;;;;;;;;;;;19.04;48.79;97152.25;1701577;84;20142;-83
2022/05/10 10:27:39;;;;;;;;;;;;;;;19.08;48.39;97147.64;1695772;84;20422;-83
2022/05/10 10:30:09;;;;;;;;;;;;;;;19.09;48.07;97150.57;1696067;84;20178;-83
2022/05/10 10:32:41;;;;;;;;;;;;;;;19.10;47.97;97143.47;1696073;84;20105;-83
2022/05/10 10:35:13;;;;;;;;;;;;;;;19.15;48.24;97144.42;1685817;85;20121;-83
2022/05/10 10:37:49;;;;;;;;;;;;;;;19.24;47.58;97144.16;1695785;84;20180;-83
2022/05/10 10:40:36;;;;;;;;;;;;;;;19.31;47.90;97136.47;1696240;84;20134;-83
2022/05/10 10:43:11;;;;;;;;;;;;;;;19.37;48.49;97138.25;1696111;84;20102;-83
2022/05/10 10:45:45;;;;;;;;;;;;;;;19.40;47.97;97125.14;1695916;84;20153;-83
2022/05/10 10:48:15;;;;;;;;;;;;;;;19.43;46.29;97126.82;1695917;84;20129;-83
2022/05/10 10:50:41;;;;;;;;;;;;;;;19.43;45.83;97122.06;1695812;84;20203;-83
2022/05/10 10:53:09;;;;;;;;;;;;;;;19.43;46.60;97122.06;1695816;84;20101;-83
2022/05/10 10:56:00;;;;;;;;;;;;;;;19.45;45.29;97119.50;1695922;84;20320;-83
2022/05/10 10:58:41;;;;;;;;;;;;;;;19.50;47.75;97114.36;1695615;84;20149;-83
2022/05/10 11:01:48;;;;;;;;;;;;;;;19.64;47.18;97108.46;1695670;85;20466;-82
2022/05/10 11:04:27;;;;;;;;;;;;;;;19.64;46.78;97107.66;1682848;85;20196;-82
2022/05/10 11:06:53;;;;;;;;;;;;;;;19.65;45.39;97103.98;1682078;85;20143;-82
2022/05/10 11:09:31;;;;;;;;;;;;;;;19.66;43.78;97104.28;1690104;84;20379;-83
2022/05/10 11:12:04;;;;;;;;;;;;;;;19.60;44.27;97100.70;1695487;85;20181;-83
2022/05/10 11:14:36;;;;;;;;;;;;;;;19.69;45.89;97098.59;1695073;84;20093;-82
2022/05/10 11:17:14;;;;;;;;;;;;;;;19.79;46.54;97090.94;1695358;85;20327;-83
2022/05/10 11:19:55;;;;;;;;;;;;;;;19.81;44.21;97092.03;1695419;85;20117;-83
2022/05/10 11:22:39;;;;;;;;;;;;;;;19.77;44.37;97087.20;1695276;85;20315;-83
2022/05/10 11:25:43;;;;;;;;;;;;;;;19.89;45.28;97087.78;1695312;85;20113;-82
2022/05/10 11:28:22;;;;;;;;;;;;;;;20.02;44.81;97084.45;1695524;85;20371;-82
2022/05/10 11:30:58;;;;;;;;;;;;;;;20.09;44.80;97086.48;1695423;85;20101;-83
2022/05/10 11:33:30;;;;;;;;;;;;;;;20.22;46.16;97080.73;1695061;84;20085;-82
2022/05/10 11:35:59;;;;;;;;;;;;;;;20.33;45.10;97080.73;1695513;84;20145;-82
2022/05/10 11:38:46;;;;;;;;;;;;;;;20.39;42.95;97079.84;1695138;84;20198;-83
2022/05/10 11:41:32;;;;;;;;;;;;;;;20.33;43.61;97068.86;1695195;84;20173;-83
2022/05/10 11:44:20;;;;;;;;;;;;;;;20.30;40.50;97074.59;1695432;85;20389;-83
2022/05/10 11:46:53;;;;;;;;;;;;;;;20.22;43.07;97068.34;1695417;84;20350;-83
2022/05/10 11:49:25;;;;;;;;;;;;;;;20.25;43.02;97066.56;1695289;85;20319;-83
2022/05/10 11:52:05;;;;;;;;;;;;;;;20.32;43.58;97061.97;1695232;84;20125;-83
2022/05/10 11:55:08;;;;;;;;;;;;;;;20.39;43.52;97058.73;1695334;85;20169;-82
2022/05/10 11:57:34;;;;;;;;;;;;;;;20.49;44.32;97049.46;1695572;84;20102;-82
2022/05/10 12:00:29;;;;;;;;;;;;;;;20.64;44.77;97047.98;1685404;85;20129;-83
2022/05/10 12:02:54;;;;;;;;;;;;;;;20.68;44.12;97042.55;1684425;84;20187;-83
2022/05/10 12:05:28;;;;;;;;;;;;;;;20.79;44.52;97041.45;1695113;84;20106;-84
2022/05/10 12:08:01;;;;;;;;;;;;;;;20.91;45.34;97041.73;1713427;83;20084;-84
2022/05/10 12:10:31;;;;;;;;;;;;;;;21.03;45.30;97037.77;1724205;83;20387;-84
2022/05/10 12:13:00;;;;;;;;;;;;;;;21.02;39.69;97044.09;1723588;83;20481;-84
2022/05/10 12:21:52;;;;;;;;;;;;;;;20.83;42.09;97035.50;1724881;83;20144;-84
2022/05/10 12:24:23;;;;;;;;;;;;;;;20.90;43.95;97034.84;1724846;83;20096;-84
2022/05/10 12:26:57;;;;;;;;;;;;;;;21.04;42.78;97025.36;1724367;83;20088;-84
2022/05/10 12:29:42;;;;;;;;;;;;;;;21.09;42.51;97020.17;1723742;83;20147;-84
2022/05/10 12:32:37;;;;;;;;;;;;;;;21.19;42.50;97026.48;1715350;83;20217;-84
2022/05/10 12:35:06;;;;;;;;;;;;;;;21.18;40.58;97017.47;1710322;84;20763;-84
2022/05/10 12:37:37;;;;;;;;;;;;;;;21.15;38.67;97022.70;1708283;84;20351;-84
2022/05/10 12:40:06;;;;;;;;;;;;;;;21.04;40.31;97020.87;1709153;84;20165;-84
2022/05/10 12:42:52;;;;;;;;;;;;;;;21.10;41.79;97013.84;1709246;84;20121;-84
2022/05/10 12:45:44;;;;;;;;;;;;;;;21.19;41.90;97008.50;1709142;84;20121;-84
2022/05/10 12:48:47;;;;;;;;;;;;;;;21.07;37.80;97008.52;1709108;84;20415;-84
2022/05/10 12:51:34;;;;;;;;;;;;;;;21.04;38.37;97005.02;1710297;84;20174;-84
2022/05/10 12:54:24;;;;;;;;;;;;;;;20.97;40.27;97002.49;1710267;84;20402;-84
2022/05/10 12:57:03;;;;;;;;;;;;;;;21.11;40.50;96994.31;1710686;84;20129;-84
2022/05/10 12:59:46;;;;;;;;;;;;;;;21.26;40.90;96994.13;1703102;84;20322;-84
2022/05/10 13:02:13;;;;;;;;;;;;;;;21.34;40.84;96987.69;1710031;84;20410;-84
2022/05/10 13:04:42;;;;;;;;;;;;;;;21.36;39.71;96978.20;1709485;84;20157;-84
2022/05/10 13:07:45;;;;;;;;;;;;;;;21.42;39.72;96969.32;1712169;83;20364;-84
2022/05/10 13:10:16;;;;;;;;;;;;;;;21.49;40.96;96974.77;1716987;84;20126;-84
2022/05/10 13:12:45;;;;;;;;;;;;;;;21.48;39.06;96963.91;1717188;83;20159;-84
2022/05/10 13:15:18;;;;;;;;;;;;;;;21.43;39.19;96964.31;1709463;84;20099;-84
2022/05/10 13:17:48;;;;;;;;;;;;;;;21.35;37.88;96964.70;1716875;83;20120;-84
2022/05/10 13:20:16;;;;;;;;;;;;;;;21.21;37.84;96961.50;1717171;84;20163;-84
2022/05/10 13:23:01;;;;;;;;;;;;;;;21.26;40.63;96969.55;1688332;84;20111;-84